Time;durP1;ratioP1;P1;durP2;ratioP2;P2;SDS_P1;SDS_P2;PMS_P1;PMS_P2;Temp;Humidity;BMP_temperature;BMP_pressure;BME280_temperature;BME280_humidity;BME280_pressure;Samples;Min_cycle;Max_cycle;Signal;HPM_P1;HPM_P2
2023/04/22 00:00:46;;;;;;;11.38;10.13;;;;;;;11.02;67.31;100719.31;5084817;28;20797;-63
2023/04/22 00:03:12;;;;;;;10.82;9.70;;;;;;;10.95;67.11;100708.41;5076416;28;20032;-64
2023/04/22 00:05:38;;;;;;;10.70;9.68;;;;;;;10.96;67.15;100712.00;5091689;28;20471;-63
2023/04/22 00:08:03;;;;;;;10.90;9.85;;;;;;;10.90;67.24;100711.13;5090789;28;20042;-64
2023/04/22 00:10:29;;;;;;;11.45;10.30;;;;;;;10.91;67.19;100712.78;5077762;28;20028;-63
2023/04/22 00:12:54;;;;;;;11.10;9.80;;;;;;;10.86;67.09;100714.69;5073687;28;20020;-63
2023/04/22 00:15:20;;;;;;;10.38;9.38;;;;;;;10.86;66.86;100711.91;5073379;28;20075;-63
2023/04/22 00:17:47;;;;;;;10.85;9.75;;;;;;;10.85;66.83;100708.28;5075744;28;20502;-63
2023/04/22 00:20:12;;;;;;;10.93;9.82;;;;;;;10.78;66.63;100715.97;5086703;28;20040;-64
2023/04/22 00:22:37;;;;;;;12.20;11.00;;;;;;;10.78;67.32;100708.47;5082948;28;20056;-63
2023/04/22 00:25:03;;;;;;;11.10;10.00;;;;;;;10.75;67.23;100706.22;5072745;28;20069;-63
2023/04/22 00:27:28;;;;;;;10.82;9.82;;;;;;;10.74;67.37;100709.25;5073702;28;20024;-63
2023/04/22 00:29:54;;;;;;;11.77;10.32;;;;;;;10.76;67.31;100713.44;5073031;28;20040;-64
2023/04/22 00:32:21;;;;;;;10.63;9.63;;;;;;;10.72;67.63;100705.88;5072518;28;20031;-63
2023/04/22 00:34:46;;;;;;;10.82;9.73;;;;;;;10.66;66.97;100713.31;5081101;28;20035;-63
2023/04/22 00:37:12;;;;;;;10.38;9.40;;;;;;;10.67;67.58;100703.88;5093876;28;20478;-63
2023/04/22 00:39:38;;;;;;;9.50;8.70;;;;;;;10.67;67.46;100703.06;5091368;28;20486;-64
2023/04/22 00:42:04;;;;;;;10.07;9.18;;;;;;;10.64;67.81;100707.16;5093178;28;20403;-64
2023/04/22 00:44:31;;;;;;;10.93;9.82;;;;;;;10.62;67.53;100691.91;5093611;28;20028;-63
2023/04/22 00:46:57;;;;;;;10.10;9.10;;;;;;;10.63;66.88;100710.22;5092637;28;20384;-64
2023/04/22 00:49:26;;;;;;;10.63;9.52;;;;;;;10.61;66.88;100709.63;5093610;28;20028;-63
2023/04/22 00:51:51;;;;;;;9.73;8.73;;;;;;;10.61;67.55;100721.59;5081612;28;20091;-63
2023/04/22 00:54:16;;;;;;;10.43;9.45;;;;;;;10.63;67.68;100718.53;5093142;28;20056;-63
2023/04/22 00:56:42;;;;;;;9.93;9.02;;;;;;;10.61;67.48;100715.16;5089914;28;20032;-63
2023/04/22 00:59:09;;;;;;;10.20;9.00;;;;;;;10.58;67.96;100716.53;5092725;28;20032;-63
2023/04/22 01:01:35;;;;;;;11.00;9.02;;;;;;;10.57;68.21;100706.50;5093137;28;20023;-63
2023/04/22 01:04:02;;;;;;;9.35;8.48;;;;;;;10.53;67.82;100714.53;5090649;28;20055;-63
2023/04/22 01:06:30;;;;;;;10.15;8.70;;;;;;;10.52;68.41;100715.63;5088773;28;20082;-63
2023/04/22 01:08:55;;;;;;;10.40;8.52;;;;;;;10.53;68.09;100711.78;5078872;28;20046;-63
2023/04/22 01:11:22;;;;;;;9.32;8.52;;;;;;;10.55;68.15;100706.78;5093041;28;20460;-63
2023/04/22 01:13:47;;;;;;;9.80;8.80;;;;;;;10.55;68.43;100705.94;5086083;28;21200;-62
2023/04/22 01:16:12;;;;;;;9.52;8.40;;;;;;;10.59;68.17;100704.34;5052512;28;20100;-64
2023/04/22 01:18:38;;;;;;;9.90;8.95;;;;;;;10.61;67.97;100704.06;5052568;28;20112;-63
2023/04/22 01:21:04;;;;;;;10.23;9.23;;;;;;;10.57;68.46;100706.50;5067323;28;20061;-63
2023/04/22 01:23:29;;;;;;;10.05;9.07;;;;;;;10.57;68.64;100698.19;5072833;28;20388;-64
2023/04/22 01:25:56;;;;;;;9.95;9.05;;;;;;;10.54;68.40;100699.56;5067794;28;20036;-63
2023/04/22 01:28:22;;;;;;;9.68;8.73;;;;;;;10.51;68.31;100693.69;5066584;28;20100;-63
2023/04/22 01:30:48;;;;;;;9.30;8.40;;;;;;;10.49;68.52;100696.72;5070614;28;20028;-64
2023/04/22 01:33:14;;;;;;;10.60;9.60;;;;;;;10.47;68.08;100693.34;5072065;28;20396;-63
2023/04/22 01:35:42;;;;;;;9.50;8.50;;;;;;;10.46;68.54;100690.84;5071282;28;20128;-64
2023/04/22 01:38:10;;;;;;;9.60;8.70;;;;;;;10.46;68.64;100686.13;5072261;28;20103;-63
2023/04/22 01:40:36;;;;;;;9.35;8.48;;;;;;;10.45;68.79;100692.78;5071991;28;20476;-63
2023/04/22 01:43:02;;;;;;;10.05;9.05;;;;;;;10.46;69.01;100701.94;5065699;28;20036;-64
2023/04/22 01:45:28;;;;;;;9.30;8.30;;;;;;;10.47;69.14;100698.06;5072080;28;20082;-64
2023/04/22 01:47:54;;;;;;;9.63;8.73;;;;;;;10.45;68.81;100690.00;5069472;28;20028;-64
2023/04/22 01:50:20;;;;;;;9.07;8.18;;;;;;;10.44;69.50;100693.03;5071596;28;20028;-64
2023/04/22 01:52:46;;;;;;;10.00;9.02;;;;;;;10.48;69.17;100692.25;5071150;28;20377;-64
2023/04/22 01:55:12;;;;;;;10.00;9.00;;;;;;;10.43;69.31;100689.41;5070929;28;20028;-64
2023/04/22 01:57:37;;;;;;;9.88;8.93;;;;;;;10.43;69.78;100691.34;5071783;28;20039;-63
2023/04/22 02:00:04;;;;;;;9.63;8.73;;;;;;;10.40;69.42;100687.16;5068973;28;20462;-64
2023/04/22 02:02:29;;;;;;;10.02;9.02;;;;;;;10.43;69.34;100683.88;5053408;28;20044;-64
2023/04/22 02:04:55;;;;;;;10.48;9.32;;;;;;;10.38;69.63;100692.13;5053358;28;20465;-64
2023/04/22 02:07:20;;;;;;;10.52;9.52;;;;;;;10.40;69.35;100687.16;5051445;28;20029;-63
2023/04/22 02:09:45;;;;;;;10.75;9.75;;;;;;;10.44;69.59;100693.03;5050918;28;20113;-64
2023/04/22 02:12:10;;;;;;;11.23;9.90;;;;;;;10.44;69.08;100685.53;5051335;28;20033;-64
2023/04/22 02:14:36;;;;;;;10.48;9.38;;;;;;;10.42;70.02;100696.06;5061352;28;20052;-63
2023/04/22 02:17:02;;;;;;;10.23;9.23;;;;;;;10.42;69.90;100687.75;5078662;28;20162;-64
2023/04/22 02:19:27;;;;;;;10.23;9.25;;;;;;;10.41;69.85;100687.97;5075509;28;20044;-64
2023/04/22 02:21:53;;;;;;;10.77;9.80;;;;;;;10.42;69.83;100689.69;5080023;28;20133;-64
2023/04/22 02:24:18;;;;;;;11.27;10.10;;;;;;;10.43;69.74;100681.09;5088295;28;20047;-64
2023/04/22 02:26:44;;;;;;;11.13;9.95;;;;;;;10.43;69.72;100685.81;5080874;28;20064;-64
2023/04/22 02:29:10;;;;;;;11.20;9.77;;;;;;;10.40;69.96;100681.59;5088526;28;20034;-64
2023/04/22 02:31:35;;;;;;;10.27;9.27;;;;;;;10.37;70.04;100675.72;5074560;28;20103;-64
2023/04/22 02:34:00;;;;;;;11.35;9.98;;;;;;;10.38;69.87;100672.72;5091108;28;20089;-64
2023/04/22 02:36:26;;;;;;;12.57;9.80;;;;;;;10.37;69.85;100668.22;5087820;28;20035;-63
2023/04/22 02:38:52;;;;;;;11.43;9.95;;;;;;;10.33;69.87;100664.28;5089070;28;20070;-64
2023/04/22 02:41:17;;;;;;;11.00;9.88;;;;;;;10.36;69.93;100669.34;5091312;28;20032;-64
2023/04/22 02:43:45;;;;;;;10.27;9.27;;;;;;;10.34;69.94;100668.75;5091192;28;20360;-64
2023/04/22 02:46:11;;;;;;;10.05;9.05;;;;;;;10.30;69.77;100659.28;5090492;28;20026;-64
2023/04/22 02:48:37;;;;;;;10.48;9.48;;;;;;;10.30;69.75;100667.59;5091105;28;20028;-64
2023/04/22 02:51:02;;;;;;;10.23;9.23;;;;;;;10.28;69.53;100665.06;5090448;28;20120;-64
2023/04/22 02:53:28;;;;;;;11.82;10.38;;;;;;;10.28;69.93;100665.06;5071552;28;20430;-64
2023/04/22 02:55:54;;;;;;;11.10;10.10;;;;;;;10.27;70.16;100654.22;5071965;28;20078;-63
2023/04/22 02:58:19;;;;;;;10.55;9.38;;;;;;;10.27;70.15;100662.56;5070248;28;20078;-64
2023/04/22 03:00:45;;;;;;;11.05;10.05;;;;;;;10.26;70.59;100658.94;5070831;28;20024;-64
2023/04/22 03:03:10;;;;;;;10.18;8.88;;;;;;;10.25;70.60;100653.63;5070903;28;20108;-64
2023/04/22 03:05:35;;;;;;;11.30;10.27;;;;;;;10.25;70.31;100661.97;5069993;28;20024;-64
2023/04/22 03:08:01;;;;;;;11.25;10.15;;;;;;;10.27;70.32;100665.31;5070220;28;20476;-64
2023/04/22 03:10:26;;;;;;;12.15;10.85;;;;;;;10.26;70.49;100658.13;5082713;28;20032;-64
2023/04/22 03:12:51;;;;;;;10.90;9.80;;;;;;;10.24;70.66;100655.53;5085429;28;20028;-64
2023/04/22 03:15:17;;;;;;;11.25;10.15;;;;;;;10.24;70.77;100654.72;5090580;28;20127;-64
2023/04/22 03:17:42;;;;;;;11.38;10.27;;;;;;;10.26;70.82;100649.78;5090706;28;20028;-62
2023/04/22 03:20:08;;;;;;;11.85;10.77;;;;;;;10.24;70.77;100643.59;5078706;28;20028;-63
2023/04/22 03:22:34;;;;;;;11.27;10.18;;;;;;;10.24;70.66;100638.91;5070626;28;20031;-63
2023/04/22 03:24:59;;;;;;;11.43;10.35;;;;;;;10.23;70.76;100644.72;5069813;28;20037;-63
2023/04/22 03:27:25;;;;;;;12.82;11.00;;;;;;;10.22;70.99;100635.56;5086570;28;20060;-63
2023/04/22 03:29:50;;;;;;;12.70;11.45;;;;;;;10.25;70.82;100634.22;5082184;28;20388;-63
2023/04/22 03:32:15;;;;;;;12.20;11.10;;;;;;;10.24;70.97;100632.50;5070435;28;20016;-63
2023/04/22 03:34:41;;;;;;;11.88;10.68;;;;;;;10.19;71.08;100627.75;5068318;28;20422;-63
2023/04/22 03:37:06;;;;;;;13.10;11.80;;;;;;;10.20;70.93;100626.63;5084041;28;20051;-63
2023/04/22 03:39:31;;;;;;;13.32;12.13;;;;;;;10.18;70.99;100622.44;5088938;28;20024;-63
2023/04/22 03:41:56;;;;;;;14.50;11.98;;;;;;;10.18;70.93;100625.22;5089755;28;20039;-63
2023/04/22 03:44:22;;;;;;;12.77;11.57;;;;;;;10.18;70.89;100626.06;5090588;28;20031;-63
2023/04/22 03:46:47;;;;;;;13.60;12.20;;;;;;;10.17;70.85;100620.75;5077887;28;20062;-63
2023/04/22 03:49:12;;;;;;;12.70;11.48;;;;;;;10.16;71.19;100616.31;5069545;28;20051;-63
2023/04/22 03:51:38;;;;;;;14.32;12.88;;;;;;;10.13;71.00;100611.28;5076800;28;20028;-63
2023/04/22 03:54:03;;;;;;;13.93;12.68;;;;;;;10.13;70.94;100609.34;5070216;28;20094;-64
2023/04/22 03:56:28;;;;;;;13.40;12.00;;;;;;;10.11;71.34;100614.31;5069565;28;20043;-63
2023/04/22 03:58:53;;;;;;;14.02;12.55;;;;;;;10.11;71.07;100605.16;5070010;28;20107;-63
2023/04/22 04:01:19;;;;;;;14.93;13.60;;;;;;;10.13;71.26;100609.34;5084059;28;20051;-63
2023/04/22 04:03:44;;;;;;;14.02;12.63;;;;;;;10.13;71.03;100614.06;5077603;28;20115;-63
2023/04/22 04:06:09;;;;;;;13.93;12.57;;;;;;;10.13;71.12;100602.97;5070265;28;20759;-63
2023/04/22 04:08:35;;;;;;;14.05;12.57;;;;;;;10.11;70.99;100591.28;5072017;28;20039;-64
2023/04/22 04:11:00;;;;;;;14.13;12.73;;;;;;;10.09;71.18;100600.69;5071703;28;20049;-63
2023/04/22 04:13:26;;;;;;;13.80;12.50;;;;;;;10.11;71.24;100596.84;5070222;28;20051;-63
2023/04/22 04:15:51;;;;;;;13.10;11.80;;;;;;;10.09;71.23;100603.47;5069494;28;20559;-63
2023/04/22 04:18:17;;;;;;;13.52;12.13;;;;;;;10.05;70.96;100599.53;5073160;28;20039;-64
2023/04/22 04:20:42;;;;;;;12.95;11.68;;;;;;;10.05;71.23;100607.84;5074516;28;20040;-64
2023/04/22 04:23:08;;;;;;;13.18;11.88;;;;;;;10.06;71.09;100601.22;5072780;28;20108;-64
2023/04/22 04:25:37;;;;;;;12.82;11.63;;;;;;;10.04;71.37;100595.09;5082523;28;20032;-64
2023/04/22 04:28:08;;;;;;;12.48;11.07;;;;;;;10.03;71.33;100593.41;5093333;28;20043;-64
2023/04/22 04:30:33;;;;;;;11.40;10.38;;;;;;;10.02;71.19;100588.97;5082924;28;20056;-64
2023/04/22 04:33:05;;;;;;;11.77;10.38;;;;;;;10.00;71.12;100588.38;5072891;28;20052;-64
2023/04/22 04:35:33;;;;;;;11.50;10.40;;;;;;;10.00;71.82;100593.91;5073217;28;20055;-63
2023/04/22 04:37:59;;;;;;;12.00;10.80;;;;;;;10.00;71.36;100591.16;5073295;28;20098;-63
2023/04/22 04:40:24;;;;;;;11.95;10.95;;;;;;;9.97;71.15;100597.19;5072991;28;20472;-63
2023/04/22 04:42:51;;;;;;;14.15;11.77;;;;;;;9.97;71.24;100594.41;5083860;28;20566;-63
2023/04/22 04:45:18;;;;;;;13.50;11.85;;;;;;;9.95;71.44;100593.84;5092328;28;20035;-64
2023/04/22 04:47:43;;;;;;;15.60;11.98;;;;;;;9.99;71.98;100592.25;5093028;28;20067;-63
2023/04/22 04:50:09;;;;;;;12.50;11.30;;;;;;;9.93;71.74;100601.56;5082348;28;20103;-63
2023/04/22 04:52:35;;;;;;;13.38;11.25;;;;;;;9.95;71.74;100604.09;5078218;28;20111;-63
2023/04/22 04:55:00;;;;;;;15.05;12.60;;;;;;;9.94;71.93;100603.28;5078429;28;20061;-64
2023/04/22 04:57:25;;;;;;;14.23;12.32;;;;;;;9.98;71.43;100600.81;5091123;28;20483;-64
2023/04/22 04:59:51;;;;;;;14.98;12.13;;;;;;;9.95;71.70;100609.66;5075108;28;20028;-63
2023/04/22 05:02:16;;;;;;;14.90;12.15;;;;;;;9.94;71.57;100611.59;5073112;28;20036;-63
2023/04/22 05:04:41;;;;;;;13.82;12.40;;;;;;;9.93;71.91;100609.88;5080209;28;20020;-64
2023/04/22 05:07:07;;;;;;;13.75;12.35;;;;;;;9.92;71.77;100597.13;5072989;28;20043;-64
2023/04/22 05:09:36;;;;;;;12.93;11.73;;;;;;;9.91;72.23;100606.56;5076170;28;20123;-65
2023/04/22 05:12:02;;;;;;;13.55;12.25;;;;;;;9.90;72.02;100604.84;5077416;28;20029;-63
2023/04/22 05:14:27;;;;;;;13.48;11.82;;;;;;;9.92;72.04;100590.75;5087105;28;20079;-63
2023/04/22 05:16:53;;;;;;;13.00;11.75;;;;;;;9.94;71.93;100585.78;5076082;28;20074;-62
2023/04/22 05:19:18;;;;;;;13.68;12.32;;;;;;;10.00;72.30;100584.75;5072184;28;20484;-62
2023/04/22 05:21:43;;;;;;;13.98;12.10;;;;;;;9.96;72.14;100584.44;5088752;28;20074;-62
2023/04/22 05:24:08;;;;;;;13.82;12.52;;;;;;;9.96;72.78;100589.16;5076038;28;20395;-63
2023/04/22 05:26:34;;;;;;;14.82;13.32;;;;;;;9.98;72.72;100589.72;5071426;28;20028;-63
2023/04/22 05:28:59;;;;;;;15.93;14.32;;;;;;;9.96;72.86;100598.28;5071118;28;20032;-65
2023/04/22 05:31:24;;;;;;;15.50;13.98;;;;;;;10.01;72.75;100600.28;5073737;28;20035;-63
2023/04/22 05:33:49;;;;;;;16.17;14.57;;;;;;;10.02;73.11;100596.41;5091251;28;20081;-62
2023/04/22 05:36:15;;;;;;;16.90;15.30;;;;;;;10.01;72.24;100590.03;5085539;28;20020;-62
2023/04/22 05:38:40;;;;;;;16.67;14.15;;;;;;;10.03;72.95;100587.88;5092047;28;20032;-63
2023/04/22 05:41:05;;;;;;;16.35;14.65;;;;;;;10.08;72.47;100584.31;5081413;28;20442;-63
2023/04/22 05:43:31;;;;;;;16.25;14.70;;;;;;;10.12;72.42;100585.47;5082945;28;20028;-62
2023/04/22 05:45:56;;;;;;;16.23;14.55;;;;;;;10.09;72.74;100586.81;5078027;28;20937;-62
2023/04/22 05:48:21;;;;;;;15.63;14.23;;;;;;;10.12;73.03;100593.81;5088115;28;20055;-62
2023/04/22 05:50:46;;;;;;;16.35;14.75;;;;;;;10.14;72.76;100597.19;5085300;28;20028;-61
2023/04/22 05:53:12;;;;;;;15.90;14.35;;;;;;;10.13;73.19;100586.31;5087984;28;20031;-62
2023/04/22 05:55:37;;;;;;;15.90;14.50;;;;;;;10.14;73.42;100593.53;5086777;28;20051;-63
2023/04/22 05:58:02;;;;;;;15.80;14.18;;;;;;;10.20;73.18;100592.53;5091022;28;20370;-63
2023/04/22 06:00:28;;;;;;;15.82;14.32;;;;;;;10.22;73.95;100579.25;5091414;28;20032;-63
2023/04/22 06:02:53;;;;;;;15.88;14.20;;;;;;;10.28;73.26;100583.78;5089634;28;20021;-63
2023/04/22 06:05:18;;;;;;;16.65;14.95;;;;;;;10.45;73.70;100578.16;5084647;28;20043;-63
2023/04/22 06:07:44;;;;;;;16.85;15.20;;;;;;;10.51;72.86;100580.75;5084653;28;20084;-62
2023/04/22 06:10:09;;;;;;;16.52;14.93;;;;;;;10.60;72.12;100580.28;5073322;28;20071;-63
2023/04/22 06:12:34;;;;;;;15.75;14.35;;;;;;;10.60;71.84;100583.06;5069213;28;20038;-63
2023/04/22 06:15:00;;;;;;;16.17;14.65;;;;;;;10.60;72.50;100580.28;5069123;28;20452;-62
2023/04/22 06:17:28;;;;;;;15.98;14.35;;;;;;;10.64;72.56;100586.97;5070283;28;20032;-63
2023/04/22 06:19:53;;;;;;;15.75;14.25;;;;;;;10.67;73.25;100584.53;5073474;28;20382;-63
2023/04/22 06:22:18;;;;;;;15.48;13.85;;;;;;;10.72;72.59;100578.19;5090108;28;20067;-62
2023/04/22 06:24:44;;;;;;;14.35;13.05;;;;;;;10.82;72.88;100570.81;5090754;28;20024;-63
2023/04/22 06:27:09;;;;;;;15.15;13.55;;;;;;;10.91;72.60;100560.06;5090889;28;20038;-62
2023/04/22 06:29:34;;;;;;;15.43;14.02;;;;;;;10.94;72.62;100565.09;5088054;28;20096;-62
2023/04/22 06:32:00;;;;;;;14.80;13.35;;;;;;;11.06;72.35;100563.00;5070918;28;20028;-63
2023/04/22 06:34:25;;;;;;;15.35;13.75;;;;;;;11.14;72.57;100569.19;5070887;28;20029;-62
2023/04/22 06:36:51;;;;;;;14.90;13.48;;;;;;;11.23;72.58;100567.59;5071069;28;20033;-63
2023/04/22 06:39:17;;;;;;;15.88;14.27;;;;;;;11.30;72.82;100565.44;5069901;28;20135;-62
2023/04/22 06:41:43;;;;;;;15.18;13.43;;;;;;;11.42;72.60;100565.25;5081198;28;20036;-62
2023/04/22 06:44:08;;;;;;;15.18;13.57;;;;;;;11.49;73.92;100560.31;5089982;28;20024;-63
2023/04/22 06:46:33;;;;;;;17.40;13.75;;;;;;;11.57;73.47;100558.97;5090900;28;20082;-63
2023/04/22 06:48:59;;;;;;;14.52;13.05;;;;;;;11.61;73.76;100549.81;5090421;28;20032;-63
2023/04/22 06:51:24;;;;;;;14.18;12.85;;;;;;;11.62;73.69;100556.22;5089920;28;20020;-63
2023/04/22 06:53:52;;;;;;;13.98;12.63;;;;;;;11.61;73.33;100549.00;5089134;28;20027;-63
2023/04/22 06:56:18;;;;;;;14.02;12.60;;;;;;;11.65;73.81;100564.03;5090563;28;20031;-63
2023/04/22 06:58:43;;;;;;;15.65;13.18;;;;;;;11.73;74.02;100566.31;5085664;28;20016;-63
2023/04/22 07:01:08;;;;;;;14.55;13.10;;;;;;;11.83;73.98;100557.19;5082912;28;20032;-63
2023/04/22 07:03:33;;;;;;;14.75;12.88;;;;;;;11.91;74.31;100556.75;5088307;28;20027;-63
2023/04/22 07:05:59;;;;;;;13.13;11.82;;;;;;;12.00;73.45;100555.94;5088403;28;20028;-63
2023/04/22 07:08:24;;;;;;;13.68;12.38;;;;;;;12.11;73.47;100550.44;5082795;28;20033;-63
2023/04/22 07:10:49;;;;;;;13.73;12.40;;;;;;;12.20;74.13;100555.22;5078907;28;20031;-63
2023/04/22 07:13:15;;;;;;;13.32;11.93;;;;;;;12.30;73.30;100551.66;5068831;28;20420;-63
2023/04/22 07:15:40;;;;;;;13.98;12.15;;;;;;;12.29;72.97;100545.22;5070857;28;20070;-63
2023/04/22 07:18:05;;;;;;;12.63;11.38;;;;;;;12.23;73.35;100543.53;5075761;28;20036;-63
2023/04/22 07:20:31;;;;;;;12.98;11.65;;;;;;;12.20;73.11;100546.84;5073362;28;20029;-63
2023/04/22 07:22:56;;;;;;;13.75;12.02;;;;;;;12.17;73.82;100547.41;5073247;28;20032;-63
2023/04/22 07:25:21;;;;;;;13.73;12.05;;;;;;;12.18;73.79;100542.66;5081170;28;20375;-63
2023/04/22 07:27:47;;;;;;;15.43;11.95;;;;;;;12.20;73.50;100552.41;5077581;28;20039;-63
2023/04/22 07:30:12;;;;;;;13.40;11.93;;;;;;;12.31;73.87;100553.31;5073981;28;20028;-63
2023/04/22 07:32:38;;;;;;;16.52;12.43;;;;;;;12.37;74.01;100552.22;5067325;28;20398;-63
2023/04/22 07:35:03;;;;;;;13.38;12.02;;;;;;;12.39;72.84;100547.22;5077463;28;20474;-63
2023/04/22 07:37:29;;;;;;;14.40;11.52;;;;;;;12.44;73.27;100541.66;5089889;28;20032;-64
2023/04/22 07:39:54;;;;;;;12.50;11.20;;;;;;;12.58;73.30;100553.13;5077943;28;20300;-64
2023/04/22 07:42:19;;;;;;;14.38;11.93;;;;;;;12.72;73.36;100545.09;5076020;28;20048;-66
2023/04/22 07:44:45;;;;;;;15.23;12.00;;;;;;;12.81;72.94;100542.59;5071681;28;20028;-66
2023/04/22 07:47:10;;;;;;;15.40;12.13;;;;;;;12.82;72.71;100558.22;5077566;28;20039;-66
2023/04/22 07:49:35;;;;;;;12.85;11.57;;;;;;;12.86;73.19;100556.53;5077237;28;20115;-66
2023/04/22 07:52:01;;;;;;;13.15;11.80;;;;;;;12.84;73.17;100547.63;5080782;28;20114;-66
2023/04/22 07:54:26;;;;;;;12.30;11.10;;;;;;;12.84;72.64;100531.72;5078453;28;20163;-66
2023/04/22 07:56:51;;;;;;;12.57;11.27;;;;;;;12.92;72.41;100522.00;5082248;28;20028;-67
2023/04/22 07:59:16;;;;;;;13.93;12.40;;;;;;;13.02;73.61;100528.41;5074084;28;20035;-64
2023/04/22 08:01:42;;;;;;;12.68;11.43;;;;;;;13.07;72.91;100530.38;5081301;28;20034;-63
2023/04/22 08:04:07;;;;;;;15.27;11.85;;;;;;;13.11;72.76;100516.72;5092597;28;20062;-63
2023/04/22 08:06:32;;;;;;;13.52;11.75;;;;;;;13.15;72.43;100520.63;5076051;28;20072;-63
2023/04/22 08:08:58;;;;;;;13.88;12.30;;;;;;;13.17;72.32;100510.88;5081292;28;20040;-62
2023/04/22 08:11:23;;;;;;;14.65;12.35;;;;;;;13.21;72.21;100509.22;5093700;28;20093;-63
2023/04/22 08:13:48;;;;;;;13.57;12.18;;;;;;;13.30;72.89;100517.88;5093716;28;20032;-63
2023/04/22 08:16:14;;;;;;;13.52;12.10;;;;;;;13.37;73.35;100515.63;5092779;28;20082;-63
2023/04/22 08:18:39;;;;;;;14.15;12.38;;;;;;;13.44;72.48;100518.97;5081792;28;20036;-63
2023/04/22 08:21:05;;;;;;;13.07;11.68;;;;;;;13.49;71.89;100507.81;5093494;28;20034;-63
2023/04/22 08:23:31;;;;;;;14.35;11.93;;;;;;;13.50;70.64;100501.13;5093202;28;20151;-63
2023/04/22 08:25:57;;;;;;;14.30;11.00;;;;;;;13.53;71.10;100496.09;5093598;28;20190;-63
2023/04/22 08:28:22;;;;;;;13.43;11.18;;;;;;;13.57;71.51;100500.00;5093757;28;20038;-63
2023/04/22 08:30:47;;;;;;;12.90;11.48;;;;;;;13.59;71.89;100497.75;5082271;28;20028;-63
2023/04/22 08:33:13;;;;;;;14.20;11.13;;;;;;;13.59;71.17;100508.91;5072261;28;20063;-63
2023/04/22 08:35:39;;;;;;;12.20;9.95;;;;;;;13.62;71.35;100502.78;5073811;28;20054;-63
2023/04/22 08:38:04;;;;;;;11.55;10.40;;;;;;;13.67;71.47;100494.38;5073498;28;20098;-63
2023/04/22 08:40:29;;;;;;;12.10;10.13;;;;;;;13.78;70.07;100490.44;5073137;28;20033;-63
2023/04/22 08:42:56;;;;;;;14.30;10.30;;;;;;;13.91;69.69;100478.72;5072216;28;20047;-63
2023/04/22 08:45:21;;;;;;;11.27;9.98;;;;;;;13.97;67.72;100471.97;5072461;28;20021;-63
2023/04/22 08:47:48;;;;;;;10.73;9.50;;;;;;;14.07;67.45;100465.53;5073085;28;20086;-63
2023/04/22 08:50:13;;;;;;;12.23;9.80;;;;;;;14.20;68.68;100469.66;5072355;28;20044;-63
2023/04/22 08:52:41;;;;;;;9.45;8.40;;;;;;;14.30;67.56;100461.22;5086016;28;20740;-63
2023/04/22 08:55:07;;;;;;;10.15;9.10;;;;;;;14.40;67.30;100466.75;5092706;28;20395;-63
2023/04/22 08:57:34;;;;;;;9.13;8.02;;;;;;;14.46;66.39;100461.94;5092623;28;20036;-64
2023/04/22 09:00:01;;;;;;;10.55;8.82;;;;;;;14.51;66.36;100463.94;5082693;28;20108;-63
2023/04/22 09:02:29;;;;;;;9.88;8.73;;;;;;;14.46;66.13;100461.94;5090956;28;20047;-64
2023/04/22 09:04:54;;;;;;;10.45;8.25;;;;;;;14.47;65.83;100458.88;5090127;28;20111;-63
2023/04/22 09:07:25;;;;;;;11.45;8.90;;;;;;;14.49;66.28;100459.44;5081108;28;20145;-64
2023/04/22 09:09:53;;;;;;;10.55;8.80;;;;;;;14.53;66.15;100456.91;5076313;28;20028;-63
2023/04/22 09:12:18;;;;;;;10.65;8.43;;;;;;;14.57;65.78;100454.38;5079717;28;20035;-60
2023/04/22 09:14:44;;;;;;;9.70;7.88;;;;;;;14.63;66.04;100461.63;5076139;28;20040;-64
2023/04/22 09:17:10;;;;;;;9.55;8.55;;;;;;;14.69;66.11;100460.44;5082195;28;20036;-63
2023/04/22 09:19:35;;;;;;;9.68;8.45;;;;;;;14.76;66.40;100457.31;5086970;28;20036;-62
2023/04/22 09:22:00;;;;;;;9.82;8.02;;;;;;;14.76;64.92;100460.94;5072924;28;20498;-63
2023/04/22 09:24:26;;;;;;;10.25;9.15;;;;;;;14.79;65.33;100453.97;5078106;28;20028;-60
2023/04/22 09:26:55;;;;;;;11.18;9.20;;;;;;;14.84;65.46;100453.91;5072122;28;20029;-62
2023/04/22 09:29:20;;;;;;;10.50;8.40;;;;;;;14.96;65.32;100444.03;5077245;28;20244;-60
2023/04/22 09:31:49;;;;;;;10.38;9.20;;;;;;;15.05;64.81;100446.19;5071269;28;20055;-62
2023/04/22 09:34:15;;;;;;;11.07;8.93;;;;;;;15.18;65.26;100442.72;5082848;28;20475;-63
2023/04/22 09:36:42;;;;;;;9.77;8.07;;;;;;;15.33;65.27;100445.38;5081955;28;20032;-62
2023/04/22 09:39:07;;;;;;;8.68;7.78;;;;;;;15.43;64.49;100436.88;5082955;28;20479;-63
2023/04/22 09:41:39;;;;;;;11.55;8.10;;;;;;;15.56;64.74;100440.09;5075234;28;20023;-61
2023/04/22 09:44:16;;;;;;;10.75;8.43;;;;;;;15.72;64.27;100436.03;5083663;28;20424;-62
2023/04/22 09:46:43;;;;;;;9.65;8.60;;;;;;;15.74;64.12;100449.72;5081627;28;20038;-62
2023/04/22 09:49:09;;;;;;;9.75;7.85;;;;;;;15.80;64.25;100452.19;5075548;28;20553;-61
2023/04/22 09:51:34;;;;;;;9.65;8.70;;;;;;;15.82;63.78;100458.28;5073477;28;20063;-63
2023/04/22 09:54:09;;;;;;;10.52;9.43;;;;;;;15.83;63.49;100453.53;5082721;28;20036;-62
2023/04/22 09:56:43;;;;;;;9.98;8.95;;;;;;;15.83;65.01;100451.56;5085309;28;20391;-62
2023/04/22 09:59:09;;;;;;;9.23;7.50;;;;;;;15.89;63.86;100447.59;5072948;28;20097;-62
2023/04/22 10:01:39;;;;;;;7.97;7.18;;;;;;;16.10;64.42;100453.75;5077802;28;20443;-62
2023/04/22 10:04:08;;;;;;;9.05;8.15;;;;;;;16.15;63.32;100458.44;5071878;28;20035;-61
2023/04/22 10:06:34;;;;;;;10.43;8.77;;;;;;;16.17;64.14;100454.22;5080276;28;20024;-61
2023/04/22 10:09:00;;;;;;;10.93;8.98;;;;;;;16.21;62.74;100446.06;5086006;28;20055;-62
2023/04/22 10:11:26;;;;;;;9.30;8.18;;;;;;;16.28;62.41;100448.50;5085235;28;20115;-62
2023/04/22 10:13:52;;;;;;;12.32;9.40;;;;;;;16.34;63.28;100452.88;5081472;28;20099;-61
2023/04/22 10:16:20;;;;;;;10.48;9.38;;;;;;;16.40;62.17;100460.09;5086203;28;20044;-63
2023/04/22 10:18:46;;;;;;;9.52;8.52;;;;;;;16.53;62.89;100464.09;5089166;28;20024;-63
2023/04/22 10:21:12;;;;;;;9.00;7.95;;;;;;;16.54;61.87;100460.16;5073625;28;20425;-63
2023/04/22 10:23:45;;;;;;;12.77;9.00;;;;;;;16.65;62.30;100456.88;5070241;28;20028;-62
2023/04/22 10:26:11;;;;;;;9.45;7.80;;;;;;;16.67;61.47;100460.25;5070941;28;20036;-62
2023/04/22 10:28:42;;;;;;;9.32;8.43;;;;;;;16.59;60.15;100451.69;5076407;28;20032;-62
2023/04/22 10:31:21;;;;;;;9.27;7.65;;;;;;;16.55;60.50;100453.44;5086699;28;20036;-62
2023/04/22 10:33:46;;;;;;;7.88;6.85;;;;;;;16.54;60.98;100451.75;5090445;28;20027;-63
2023/04/22 10:36:17;;;;;;;8.63;7.22;;;;;;;16.54;60.25;100449.78;5089743;28;20110;-62
2023/04/22 10:38:54;;;;;;;8.52;6.80;;;;;;;16.55;60.85;100439.41;5072051;28;20036;-62
2023/04/22 10:41:30;;;;;;;7.80;6.47;;;;;;;16.54;60.49;100432.13;5086446;28;20056;-61
2023/04/22 10:44:05;;;;;;;6.30;5.63;;;;;;;16.47;59.45;100426.94;5090983;28;20111;-62
2023/04/22 10:46:36;;;;;;;7.60;5.70;;;;;;;16.43;60.01;100432.31;5085648;28;20090;-59
2023/04/22 10:49:19;;;;;;;10.52;6.13;;;;;;;16.38;60.40;100449.16;5084331;28;20051;-62
2023/04/22 10:51:59;;;;;;;7.47;5.35;;;;;;;16.30;60.48;100443.41;5080581;28;20042;-62
2023/04/22 10:54:24;;;;;;;6.05;5.28;;;;;;;16.23;59.14;100448.53;5091249;28;20032;-63
2023/04/22 10:57:09;;;;;;;7.63;5.38;;;;;;;16.19;60.34;100454.75;5071156;28;20810;-63
2023/04/22 10:59:40;;;;;;;6.60;5.57;;;;;;;16.10;60.00;100458.50;5071033;28;20024;-63
2023/04/22 11:02:07;;;;;;;8.18;6.10;;;;;;;16.06;60.38;100460.25;5089678;28;20060;-63
2023/04/22 11:04:33;;;;;;;6.68;5.13;;;;;;;15.97;61.04;100460.09;5082828;28;20111;-62
2023/04/22 11:07:17;;;;;;;8.18;5.90;;;;;;;15.95;61.39;100465.13;5087793;28;20144;-63
2023/04/22 11:09:44;;;;;;;10.63;7.50;;;;;;;15.87;62.91;100466.63;5082856;28;20029;-63